Time;durP1;ratioP1;P1;durP2;ratioP2;P2;SDS_P1;SDS_P2;PMS_P1;PMS_P2;Temp;Humidity;BMP_temperature;BMP_pressure;BME280_temperature;BME280_humidity;BME280_pressure;Samples;Min_cycle;Max_cycle;Signal;HPM_P1;HPM_P2
2023/10/19 00:00:19;;;;;;;9.68;5.75;;;;;;;11.28;100.00;99181.66;5057603;28;20041;-67
2023/10/19 00:03:07;;;;;;;9.43;5.68;;;;;;;11.28;100.00;99177.03;5071665;28;20447;-66
2023/10/19 00:05:57;;;;;;;9.60;5.97;;;;;;;11.29;100.00;99172.38;5057119;28;20036;-67
2023/10/19 00:08:45;;;;;;;9.70;5.68;;;;;;;11.30;100.00;99165.78;5072255;28;20052;-66
2023/10/19 00:11:35;;;;;;;9.13;6.07;;;;;;;11.31;100.00;99167.41;5057852;28;20110;-67
2023/10/19 00:14:25;;;;;;;12.15;6.50;;;;;;;11.33;100.00;99165.19;5072587;28;20075;-67
2023/10/19 00:17:14;;;;;;;8.60;5.32;;;;;;;11.33;100.00;99169.81;5072582;28;20178;-67
2023/10/19 00:23:09;;;;;;;12.63;6.25;;;;;;;11.33;100.00;99162.47;5057636;28;20135;-67
2023/10/19 00:26:08;;;;;;;9.80;5.88;;;;;;;11.35;100.00;99164.84;5058278;28;20040;-68
2023/10/19 00:28:57;;;;;;;8.95;6.03;;;;;;;11.35;100.00;99176.56;5051743;28;20047;-67
2023/10/19 00:31:46;;;;;;;8.93;5.57;;;;;;;11.35;100.00;99192.91;5075235;28;20055;-67
2023/10/19 00:34:34;;;;;;;11.02;6.60;;;;;;;11.36;100.00;99193.75;5060821;28;20178;-67
2023/10/19 00:37:32;;;;;;;10.05;6.05;;;;;;;11.35;100.00;99190.19;5063722;28;20143;-67
2023/10/19 00:40:34;;;;;;;10.35;5.35;;;;;;;11.37;100.00;99187.97;5049506;28;20040;-67
2023/10/19 00:43:32;;;;;;;9.02;6.18;;;;;;;11.38;100.00;99186.88;5060230;28;20045;-67
2023/10/19 00:46:20;;;;;;;9.95;6.00;;;;;;;11.40;100.00;99173.72;5075012;28;20053;-67
2023/10/19 00:49:15;;;;;;;9.38;6.00;;;;;;;11.41;100.00;99169.88;5060513;28;20048;-67
2023/10/19 00:52:19;;;;;;;11.50;6.20;;;;;;;11.43;100.00;99162.19;5041146;28;20087;-68
2023/10/19 00:55:07;;;;;;;8.57;5.43;;;;;;;11.45;100.00;99159.94;5033758;28;20057;-67
2023/10/19 00:57:57;;;;;;;9.77;5.85;;;;;;;11.46;100.00;99167.00;5045724;28;20045;-68
2023/10/19 01:00:45;;;;;;;10.57;6.03;;;;;;;11.46;100.00;99155.28;5060635;28;20526;-68
2023/10/19 01:03:36;;;;;;;11.98;5.97;;;;;;;11.48;100.00;99158.50;5071762;28;20037;-66
2023/10/19 01:06:25;;;;;;;10.68;5.55;;;;;;;11.49;100.00;99144.53;5047219;28;20064;-66
2023/10/19 01:09:14;;;;;;;9.13;5.15;;;;;;;11.50;100.00;99151.63;5060358;28;20048;-67
2023/10/19 01:12:51;;;;;;;11.75;5.75;;;;;;;11.52;100.00;99149.38;5073795;28;20059;-67
2023/10/19 01:15:17;;;;;;;9.75;5.78;;;;;;;11.52;100.00;99149.38;5071966;28;20055;-66
2023/10/19 01:18:07;;;;;;;11.55;5.82;;;;;;;11.54;100.00;99145.53;5064550;28;20048;-68
2023/10/19 01:20:55;;;;;;;10.63;6.03;;;;;;;11.61;100.00;99148.59;5073507;28;20045;-67
2023/10/19 01:23:44;;;;;;;8.88;5.13;;;;;;;11.61;100.00;99145.88;5058493;28;20043;-67
2023/10/19 01:26:36;;;;;;;8.35;4.70;;;;;;;11.66;100.00;99148.44;5060751;28;20040;-67
2023/10/19 01:29:28;;;;;;;8.75;5.43;;;;;;;11.70;100.00;99150.22;5050461;28;20090;-67
2023/10/19 01:32:16;;;;;;;8.95;5.40;;;;;;;11.77;100.00;99144.31;5059679;28;20090;-67
2023/10/19 01:35:04;;;;;;;8.15;4.82;;;;;;;11.80;100.00;99146.41;5074810;28;20056;-68
2023/10/19 01:37:52;;;;;;;9.18;5.10;;;;;;;11.80;100.00;99142.88;5045183;28;20566;-66
2023/10/19 01:40:46;;;;;;;9.10;5.20;;;;;;;11.80;100.00;99138.22;5073460;28;20047;-67
2023/10/19 01:43:34;;;;;;;10.73;5.18;;;;;;;11.80;100.00;99132.75;5075553;28;20051;-66
2023/10/19 01:46:31;;;;;;;7.97;5.03;;;;;;;11.79;100.00;99124.91;5077272;28;20106;-62
2023/10/19 01:49:28;;;;;;;8.10;4.70;;;;;;;11.79;100.00;99122.19;5065460;28;20051;-62
2023/10/19 01:52:16;;;;;;;9.05;4.90;;;;;;;11.78;100.00;99124.09;5075822;28;20099;-66
2023/10/19 01:55:08;;;;;;;8.13;5.40;;;;;;;11.79;100.00;99125.72;5081081;28;20052;-60
2023/10/19 01:57:56;;;;;;;10.10;5.35;;;;;;;11.81;100.00;99128.94;5082883;28;20041;-62
2023/10/19 02:00:44;;;;;;;9.65;5.57;;;;;;;11.81;100.00;99123.47;5060985;28;20049;-65
2023/10/19 02:03:33;;;;;;;9.60;5.95;;;;;;;11.83;100.00;99126.66;5048033;28;20040;-67
2023/10/19 02:06:26;;;;;;;10.20;5.88;;;;;;;11.85;100.00;99118.16;5037704;28;20517;-66
2023/10/19 02:09:17;;;;;;;8.40;5.38;;;;;;;11.84;100.00;99117.38;5070829;28;20043;-65
2023/10/19 02:12:07;;;;;;;7.93;5.13;;;;;;;11.87;100.00;99118.69;5059764;28;20052;-67
2023/10/19 02:14:55;;;;;;;8.88;4.95;;;;;;;11.89;100.00;99119.97;5057984;28;20456;-66
2023/10/19 02:17:44;;;;;;;9.05;5.10;;;;;;;11.91;100.00;99115.00;5059061;28;20123;-65
2023/10/19 02:20:33;;;;;;;11.32;5.07;;;;;;;11.97;100.00;99121.09;5058944;28;20048;-66
2023/10/19 02:23:28;;;;;;;15.68;4.97;;;;;;;12.01;100.00;99115.81;5072205;28;20044;-67
2023/10/19 02:26:22;;;;;;;9.55;4.55;;;;;;;12.04;100.00;99117.91;5072782;28;20048;-66
2023/10/19 02:29:14;;;;;;;8.60;4.57;;;;;;;12.11;100.00;99118.25;5072267;28;20048;-66
2023/10/19 02:32:04;;;;;;;8.07;3.90;;;;;;;12.14;100.00;99125.78;5046286;28;20044;-66
2023/10/19 02:34:52;;;;;;;6.95;4.22;;;;;;;12.17;100.00;99119.69;5059247;28;20080;-66
2023/10/19 02:37:41;;;;;;;8.20;4.22;;;;;;;12.18;100.00;99124.03;5073221;28;20515;-66
2023/10/19 02:40:31;;;;;;;7.97;3.70;;;;;;;12.18;100.00;99117.78;5062427;28;20501;-67
2023/10/19 02:43:19;;;;;;;6.22;3.40;;;;;;;12.18;100.00;99115.84;5060589;28;20048;-67
2023/10/19 02:46:10;;;;;;;8.63;4.10;;;;;;;12.23;100.00;99117.59;5058566;28;20045;-68
2023/10/19 02:49:03;;;;;;;5.15;3.40;;;;;;;12.24;100.00;99114.56;5057624;28;20057;-67
2023/10/19 02:51:53;;;;;;;6.95;3.53;;;;;;;12.25;100.00;99116.16;5032096;28;20515;-67
2023/10/19 02:54:41;;;;;;;9.68;3.42;;;;;;;12.25;100.00;99110.69;5056920;28;20051;-67
2023/10/19 02:57:31;;;;;;;5.82;3.00;;;;;;;12.25;100.00;99116.16;5046117;28;20408;-66
2023/10/19 03:00:20;;;;;;;10.18;2.80;;;;;;;12.24;100.00;99109.09;5056526;28;20511;-66
2023/10/19 03:03:08;;;;;;;6.80;2.88;;;;;;;12.26;100.00;99114.22;5071663;28;20122;-67
2023/10/19 03:05:59;;;;;;;6.65;3.00;;;;;;;12.27;100.00;99108.44;5058114;28;20515;-67
2023/10/19 03:08:52;;;;;;;4.75;2.83;;;;;;;12.33;100.00;99120.81;5071960;28;20049;-66
2023/10/19 03:11:40;;;;;;;7.55;2.80;;;;;;;12.36;100.00;99111.16;5048118;28;20131;-66
2023/10/19 03:14:29;;;;;;;5.45;2.55;;;;;;;12.38;100.00;99105.38;5059383;28;20051;-66
2023/10/19 03:17:18;;;;;;;6.68;2.50;;;;;;;12.39;100.00;99109.72;5073754;28;20048;-66
2023/10/19 03:20:07;;;;;;;6.78;2.00;;;;;;;12.42;100.00;99106.38;5059669;28;20403;-67
2023/10/19 03:22:59;;;;;;;4.47;2.50;;;;;;;12.46;100.00;99110.03;5028378;28;20049;-66
2023/10/19 03:29:07;;;;;;;4.20;2.15;;;;;;;12.48;100.00;99099.59;5028716;28;20045;-67
2023/10/19 03:31:55;;;;;;;5.88;2.60;;;;;;;12.47;100.00;99100.72;5060460;28;20049;-67
2023/10/19 03:34:47;;;;;;;5.88;2.92;;;;;;;12.46;100.00;99099.09;5072298;28;20041;-66
2023/10/19 03:37:36;;;;;;;6.72;3.05;;;;;;;12.43;100.00;99100.56;5072307;28;20049;-66
2023/10/19 03:40:30;;;;;;;6.38;3.00;;;;;;;12.43;100.00;99097.03;5058386;28;20059;-66
2023/10/19 03:43:22;;;;;;;10.98;3.42;;;;;;;12.42;100.00;99092.69;5064134;28;20055;-67
2023/10/19 03:46:24;;;;;;;6.68;3.30;;;;;;;12.41;100.00;99091.09;5071043;28;20053;-67
2023/10/19 03:49:16;;;;;;;7.65;3.80;;;;;;;12.41;100.00;99085.63;5046292;28;20048;-66
2023/10/19 03:54:58;;;;;;;8.00;3.72;;;;;;;12.41;100.00;99080.97;5043079;28;20167;-66
2023/10/19 03:57:50;;;;;;;7.13;3.40;;;;;;;12.40;100.00;99078.56;5044850;28;20058;-67
2023/10/19 04:00:38;;;;;;;7.43;3.50;;;;;;;12.40;100.00;99081.28;5058960;28;20084;-67
2023/10/19 04:03:30;;;;;;;8.18;3.70;;;;;;;12.39;100.00;99076.94;5045670;28;20049;-67
2023/10/19 04:06:20;;;;;;;6.25;3.50;;;;;;;12.40;100.00;99081.28;5060799;28;20044;-67
2023/10/19 04:09:09;;;;;;;5.85;3.35;;;;;;;12.38;100.00;99076.16;5060656;28;20048;-68
2023/10/19 04:11:57;;;;;;;6.57;3.67;;;;;;;12.38;100.00;99073.41;5059353;28;20563;-67
2023/10/19 04:14:46;;;;;;;8.38;3.90;;;;;;;12.35;100.00;99068.59;5067357;28;20075;-66
2023/10/19 04:17:36;;;;;;;6.75;4.28;;;;;;;12.36;100.00;99067.47;5073251;28;20044;-65
2023/10/19 04:20:42;;;;;;;9.68;4.80;;;;;;;12.37;100.00;99069.09;5074312;28;20049;-66
2023/10/19 04:23:34;;;;;;;10.18;4.25;;;;;;;12.34;100.00;99067.81;5074818;28;20545;-65
2023/10/19 04:26:24;;;;;;;7.75;4.07;;;;;;;12.33;100.00;99068.91;5074235;28;20067;-66
2023/10/19 04:29:17;;;;;;;7.55;4.07;;;;;;;12.33;100.00;99066.19;5074994;28;20168;-65
2023/10/19 04:32:06;;;;;;;7.07;4.05;;;;;;;12.33;100.00;99071.66;5075441;28;20093;-64
2023/10/19 04:35:03;;;;;;;6.88;4.00;;;;;;;12.32;100.00;99067.31;5080855;28;20056;-64
2023/10/19 04:37:52;;;;;;;7.25;3.80;;;;;;;12.31;100.00;99064.91;5073135;28;20052;-66
2023/10/19 04:40:40;;;;;;;8.05;3.97;;;;;;;12.29;100.00;99065.25;5061502;28;20037;-66
2023/10/19 04:43:28;;;;;;;7.05;3.72;;;;;;;12.29;100.00;99067.97;5075236;28;20114;-66
2023/10/19 04:46:18;;;;;;;6.47;3.70;;;;;;;12.29;100.00;99072.63;5075051;28;20504;-66
2023/10/19 04:49:07;;;;;;;7.57;4.03;;;;;;;12.28;100.00;99071.81;5072503;28;20056;-66
2023/10/19 04:51:55;;;;;;;7.43;3.53;;;;;;;12.30;100.00;99069.56;5053738;28;20066;-67
2023/10/19 04:54:43;;;;;;;7.18;3.20;;;;;;;12.32;100.00;99072.00;5072964;28;20044;-67
2023/10/19 04:57:31;;;;;;;9.63;3.55;;;;;;;12.31;100.00;99076.66;5074962;28;20154;-66
2023/10/19 05:00:21;;;;;;;6.43;2.97;;;;;;;12.31;100.00;99079.38;5074834;28;20044;-66
2023/10/19 05:03:09;;;;;;;6.30;3.03;;;;;;;12.33;100.00;99084.50;5074371;28;20048;-66
2023/10/19 05:05:57;;;;;;;6.82;3.13;;;;;;;12.34;100.00;99076.00;5075516;28;20071;-66
2023/10/19 05:08:46;;;;;;;8.27;3.42;;;;;;;12.34;100.00;99080.66;5074876;28;20045;-66
2023/10/19 05:11:34;;;;;;;8.50;3.15;;;;;;;12.35;100.00;99083.06;5073533;28;20048;-67
2023/10/19 05:14:23;;;;;;;6.78;2.78;;;;;;;12.41;100.00;99080.16;5075121;28;20542;-65
2023/10/19 05:17:11;;;;;;;7.47;2.97;;;;;;;12.41;100.00;99088.34;5074694;28;20082;-64
2023/10/19 05:20:00;;;;;;;6.07;2.88;;;;;;;12.42;100.00;99087.25;5061673;28;20049;-64
2023/10/19 05:22:48;;;;;;;7.95;2.80;;;;;;;12.44;100.00;99085.00;5074874;28;20149;-66
2023/10/19 05:25:37;;;;;;;7.25;3.25;;;;;;;12.45;100.00;99092.84;4355227;28;10001005;-64
2023/10/19 05:28:25;;;;;;;7.78;2.63;;;;;;;12.48;100.00;99089.50;5056829;28;20044;-64
2023/10/19 05:31:14;;;;;;;4.35;2.47;;;;;;;12.48;100.00;99085.94;5059585;28;20059;-65
2023/10/19 05:34:04;;;;;;;6.43;2.95;;;;;;;12.49;100.00;99087.56;5057443;28;20059;-66
2023/10/19 05:36:53;;;;;;;8.27;2.90;;;;;;;12.50;100.00;99092.69;5069394;28;20044;-66
2023/10/19 05:39:42;;;;;;;4.88;2.45;;;;;;;12.51;100.00;99101.69;5057363;28;20056;-64
2023/10/19 05:42:30;;;;;;;8.27;2.75;;;;;;;12.51;100.00;99093.50;5069076;28;20053;-65
2023/10/19 05:45:18;;;;;;;7.20;2.80;;;;;;;12.49;100.00;99088.34;5070177;28;20594;-66
2023/10/19 05:48:06;;;;;;;9.63;3.00;;;;;;;12.50;100.00;99089.94;5069381;28;20052;-65
2023/10/19 05:50:54;;;;;;;7.07;2.33;;;;;;;12.51;100.00;99097.03;5069911;28;20051;-65
2023/10/19 05:53:44;;;;;;;13.18;3.15;;;;;;;12.54;100.00;99095.59;5055659;28;20056;-64
2023/10/19 05:56:34;;;;;;;10.50;2.50;;;;;;;12.56;100.00;99098.78;5068827;28;20447;-64
2023/10/19 05:59:26;;;;;;;8.50;2.50;;;;;;;12.55;100.00;99106.19;5068966;28;20044;-66
2023/10/19 06:02:14;;;;;;;10.40;2.50;;;;;;;12.57;100.00;99106.66;5069365;28;20040;-66
2023/10/19 06:05:04;;;;;;;6.97;2.38;;;;;;;12.58;100.00;99110.22;5070845;28;20044;-65
2023/10/19 06:07:52;;;;;;;9.98;2.65;;;;;;;12.60;100.00;99107.94;5070060;28;20136;-65
2023/10/19 06:10:42;;;;;;;5.47;2.25;;;;;;;12.62;100.00;99108.41;5078511;28;20067;-62
2023/10/19 06:13:30;;;;;;;5.93;2.20;;;;;;;12.63;100.00;99114.69;5085853;28;20094;-62
2023/10/19 06:16:19;;;;;;;5.80;2.13;;;;;;;12.62;100.00;99110.34;5072457;28;20525;-65
2023/10/19 06:19:07;;;;;;;5.13;2.05;;;;;;;12.63;100.00;99109.22;5057250;28;20041;-65
2023/10/19 06:21:55;;;;;;;8.23;2.58;;;;;;;12.64;100.00;99110.84;5061140;28;20040;-58
2023/10/19 06:24:43;;;;;;;6.70;2.50;;;;;;;12.64;100.00;99117.09;5085826;28;20091;-62
2023/10/19 06:27:31;;;;;;;8.10;2.65;;;;;;;12.65;100.00;99117.91;5088305;28;20045;-58
2023/10/19 06:30:22;;;;;;;13.38;2.90;;;;;;;12.67;100.00;99121.09;5062357;28;20115;-65
2023/10/19 06:33:11;;;;;;;10.18;2.95;;;;;;;12.67;100.00;99121.91;5047498;28;20040;-65
2023/10/19 06:36:02;;;;;;;10.90;3.47;;;;;;;12.66;100.00;99120.31;5074413;28;20132;-65
2023/10/19 06:38:51;;;;;;;10.25;2.67;;;;;;;12.66;100.00;99119.50;5068257;28;20051;-66
2023/10/19 06:41:39;;;;;;;9.60;2.78;;;;;;;12.66;100.00;99122.25;5069154;28;20061;-65
2023/10/19 06:44:27;;;;;;;11.73;3.10;;;;;;;12.66;100.00;99124.97;5065981;28;20131;-65
2023/10/19 06:47:15;;;;;;;10.88;3.60;;;;;;;12.66;100.00;99125.78;5072779;28;20407;-65
2023/10/19 06:50:07;;;;;;;11.25;2.58;;;;;;;12.66;100.00;99131.25;5072588;28;20048;-65
2023/10/19 06:52:56;;;;;;;8.20;2.47;;;;;;;12.67;100.00;99138.31;5072597;28;20377;-67
2023/10/19 06:55:44;;;;;;;11.25;3.10;;;;;;;12.67;100.00;99132.84;5072137;28;20075;-66
2023/10/19 06:58:32;;;;;;;10.85;2.85;;;;;;;12.70;100.00;99142.31;5073164;28;20131;-67
2023/10/19 07:01:25;;;;;;;13.52;3.30;;;;;;;12.71;100.00;99139.28;5072502;28;20044;-62
2023/10/19 07:04:13;;;;;;;9.25;2.90;;;;;;;12.74;100.00;99140.56;5050552;28;20044;-64
2023/10/19 07:07:03;;;;;;;11.30;3.25;;;;;;;12.75;100.00;99133.97;5072823;28;20149;-64
2023/10/19 07:09:52;;;;;;;8.98;2.97;;;;;;;12.73;100.00;99142.47;5073031;28;20076;-64
2023/10/19 07:12:43;;;;;;;8.48;2.53;;;;;;;12.73;100.00;99138.97;5059964;28;20075;-64
2023/10/19 07:15:31;;;;;;;10.13;2.75;;;;;;;12.75;100.00;99151.16;5071357;28;20041;-64
2023/10/19 07:18:19;;;;;;;11.43;2.95;;;;;;;12.77;100.00;99159.84;5073204;28;20051;-63
2023/10/19 07:21:09;;;;;;;10.40;2.90;;;;;;;12.79;100.00;99151.31;5073322;28;20044;-66
2023/10/19 07:24:01;;;;;;;11.15;3.25;;;;;;;12.81;100.00;99153.72;5073122;28;20044;-65
2023/10/19 07:27:25;;;;;;;11.30;3.38;;;;;;;12.84;100.00;99162.06;5053158;28;20045;-65
2023/10/19 07:30:26;;;;;;;9.07;2.72;;;;;;;12.85;100.00;99150.03;5051729;28;20489;-66
2023/10/19 07:33:18;;;;;;;10.20;2.97;;;;;;;12.86;100.00;99159.81;5068310;28;20040;-65
2023/10/19 07:36:14;;;;;;;13.63;3.03;;;;;;;12.87;100.00;99155.16;5073131;28;20049;-65
2023/10/19 07:39:02;;;;;;;13.88;3.20;;;;;;;12.88;100.00;99156.78;5042573;28;20040;-64
2023/10/19 07:41:51;;;;;;;9.73;2.83;;;;;;;12.89;100.00;99158.38;5055296;28;20560;-65
2023/10/19 07:44:39;;;;;;;7.88;2.85;;;;;;;12.89;100.00;99156.47;5056283;28;20107;-64
2023/10/19 07:47:27;;;;;;;14.27;2.80;;;;;;;12.91;100.00;99154.19;5055199;28;20179;-65
2023/10/19 07:50:19;;;;;;;8.55;2.80;;;;;;;12.93;100.00;99157.41;5067922;28;20044;-65
2023/10/19 07:53:09;;;;;;;11.63;3.00;;;;;;;12.96;100.00;99145.00;5075678;28;20041;-66
2023/10/19 07:55:57;;;;;;;10.57;3.17;;;;;;;12.96;100.00;99139.53;5076155;28;20041;-64
2023/10/19 07:58:45;;;;;;;12.90;2.97;;;;;;;12.97;100.00;99141.16;5074471;28;20131;-65
2023/10/19 08:01:33;;;;;;;8.43;2.60;;;;;;;12.99;100.00;99149.84;5061753;28;20060;-64
2023/10/19 08:04:22;;;;;;;9.48;3.30;;;;;;;13.01;100.00;99150.28;5047912;28;20055;-64
2023/10/19 08:07:10;;;;;;;12.20;3.03;;;;;;;13.05;100.00;99145.00;5060851;28;20051;-65
2023/10/19 08:09:58;;;;;;;14.98;3.17;;;;;;;13.06;100.00;99146.59;5076193;28;20056;-65
2023/10/19 08:12:48;;;;;;;11.85;2.75;;;;;;;13.08;100.00;99139.66;5075592;28;20045;-64
2023/10/19 08:15:36;;;;;;;9.88;3.10;;;;;;;13.10;100.00;99133.88;5075865;28;20535;-64
2023/10/19 08:18:24;;;;;;;15.38;3.90;;;;;;;13.12;100.00;99135.16;5075987;28;20047;-64
2023/10/19 08:21:12;;;;;;;10.50;2.70;;;;;;;13.15;100.00;99136.44;5075716;28;20385;-62
2023/10/19 08:24:04;;;;;;;11.55;2.70;;;;;;;13.16;100.00;99130.66;5074518;28;20474;-64
2023/10/19 08:26:52;;;;;;;12.38;3.00;;;;;;;13.17;100.00;99120.50;5075443;28;20040;-64
2023/10/19 08:29:40;;;;;;;8.10;2.70;;;;;;;13.21;100.00;99126.94;5075023;28;20122;-64
2023/10/19 08:32:28;;;;;;;14.98;3.05;;;;;;;13.22;100.00;99118.38;5074488;28;20213;-65
2023/10/19 08:35:26;;;;;;;11.23;3.10;;;;;;;13.24;100.00;99115.34;5074810;28;20550;-65
2023/10/19 08:38:14;;;;;;;11.32;2.90;;;;;;;13.27;100.00;99122.09;5073924;28;20595;-65
2023/10/19 08:41:03;;;;;;;11.23;3.30;;;;;;;13.29;100.00;99119.84;5075025;28;20040;-66
2023/10/19 08:43:51;;;;;;;14.38;3.47;;;;;;;13.29;100.00;99112.44;5075892;28;20051;-65
2023/10/19 08:46:43;;;;;;;11.55;2.83;;;;;;;13.30;100.00;99116.81;5074298;28;20412;-65
2023/10/19 08:49:31;;;;;;;11.52;2.67;;;;;;;13.35;100.00;99115.81;5060675;28;20048;-64
2023/10/19 08:52:24;;;;;;;13.45;3.75;;;;;;;13.39;100.00;99116.75;5045991;28;20109;-65
2023/10/19 08:55:13;;;;;;;9.25;2.88;;;;;;;13.41;100.00;99106.28;5063647;28;20036;-65
2023/10/19 08:58:03;;;;;;;12.18;3.33;;;;;;;13.45;100.00;99112.72;5072626;28;20040;-65
2023/10/19 09:00:55;;;;;;;11.30;3.08;;;;;;;13.49;100.00;99107.38;5073556;28;20420;-64
2023/10/19 09:03:43;;;;;;;12.05;3.00;;;;;;;13.52;100.00;99107.53;5075155;28;20177;-66
2023/10/19 09:06:41;;;;;;;13.88;3.70;;;;;;;13.58;100.00;99110.88;5074523;28;20526;-66
2023/10/19 09:09:32;;;;;;;11.30;3.30;;;;;;;13.60;100.00;99112.13;5074594;28;20059;-65
2023/10/19 09:12:20;;;;;;;12.02;3.10;;;;;;;13.64;100.00;99110.34;5061113;28;20047;-64
2023/10/19 09:15:23;;;;;;;8.88;2.90;;;;;;;13.70;100.00;99107.44;5073951;28;20492;-66
2023/10/19 09:18:19;;;;;;;12.63;4.68;;;;;;;13.76;100.00;99106.13;5073613;28;20059;-63
2023/10/19 09:21:11;;;;;;;13.43;4.18;;;;;;;13.80;100.00;99101.56;5060251;28;20044;-64
2023/10/19 09:23:59;;;;;;;15.25;3.78;;;;;;;13.84;100.00;99110.72;5046426;28;20052;-64
2023/10/19 09:26:47;;;;;;;11.38;3.17;;;;;;;13.88;100.00;99097.97;5059078;28;20519;-66
2023/10/19 09:29:36;;;;;;;11.15;3.65;;;;;;;13.92;100.00;99092.63;5045495;28;20098;-66
2023/10/19 09:32:24;;;;;;;12.68;3.13;;;;;;;13.94;100.00;99088.41;5061740;28;20125;-65
2023/10/19 09:35:15;;;;;;;15.73;4.38;;;;;;;13.95;100.00;99086.47;5060459;28;20125;-66
2023/10/19 09:38:06;;;;;;;14.15;3.47;;;;;;;14.03;100.00;99086.44;5060093;28;20053;-65
2023/10/19 09:40:56;;;;;;;14.50;3.75;;;;;;;14.08;100.00;99079.94;5073515;28;20068;-66
2023/10/19 09:43:46;;;;;;;12.23;3.60;;;;;;;14.20;100.00;99084.69;5073422;28;20045;-65
2023/10/19 09:46:36;;;;;;;12.02;3.58;;;;;;;14.23;100.00;99086.75;5072243;28;20048;-64
2023/10/19 09:49:25;;;;;;;9.55;3.25;;;;;;;14.25;100.00;99090.75;5073212;28;20055;-65
2023/10/19 09:52:14;;;;;;;15.40;3.92;;;;;;;14.26;100.00;99086.06;5073623;28;20044;-65
2023/10/19 09:55:31;;;;;;;14.43;4.07;;;;;;;14.25;100.00;99087.22;5074373;28;20048;-66
2023/10/19 09:58:23;;;;;;;14.80;3.88;;;;;;;14.30;100.00;99092.50;5076551;28;20530;-65
2023/10/19 10:01:14;;;;;;;15.45;3.67;;;;;;;14.30;100.00;99087.03;5046637;28;20048;-63
2023/10/19 10:04:05;;;;;;;14.68;3.72;;;;;;;14.37;100.00;99083.75;5040559;28;20099;-64
2023/10/19 10:06:54;;;;;;;19.10;3.88;;;;;;;14.40;100.00;99075.63;5054863;28;20041;-64
2023/10/19 10:09:45;;;;;;;18.38;4.65;;;;;;;14.43;100.00;99075.00;5039340;28;20041;-65
2023/10/19 10:12:34;;;;;;;15.35;3.50;;;;;;;14.46;100.00;99066.09;5040433;28;20056;-65
2023/10/19 10:15:40;;;;;;;16.92;3.33;;;;;;;14.47;100.00;99064.13;5053782;28;20520;-64
2023/10/19 10:18:37;;;;;;;10.80;3.13;;;;;;;14.46;100.00;99063.34;5054839;28;20041;-66
2023/10/19 10:21:26;;;;;;;17.27;3.55;;;;;;;14.48;100.00;99055.59;5056166;28;20052;-66
2023/10/19 10:24:14;;;;;;;16.83;3.50;;;;;;;14.51;100.00;99058.81;5035101;28;20180;-64
2023/10/19 10:27:03;;;;;;;18.27;4.30;;;;;;;14.49;100.00;99059.91;5040378;28;20100;-65
2023/10/19 10:29:55;;;;;;;15.00;3.60;;;;;;;14.47;100.00;99059.44;5039855;28;20352;-65
2023/10/19 10:32:49;;;;;;;18.25;3.78;;;;;;;14.49;100.00;99059.91;5048162;28;20041;-63
2023/10/19 10:35:38;;;;;;;10.07;3.53;;;;;;;14.52;100.00;99071.34;5077330;28;20123;-64
2023/10/19 10:38:37;;;;;;;16.15;4.00;;;;;;;14.52;100.00;99065.88;5088365;28;20102;-60
2023/10/19 10:41:29;;;;;;;18.40;3.88;;;;;;;14.55;100.00;99071.53;5078583;28;20060;-61
2023/10/19 10:44:18;;;;;;;14.75;3.80;;;;;;;14.63;100.00;99072.56;5076592;28;20181;-66
2023/10/19 10:47:11;;;;;;;13.65;4.13;;;;;;;14.66;100.00;99071.88;5088216;28;20526;-58
2023/10/19 10:50:00;;;;;;;18.25;4.00;;;;;;;14.68;100.00;99077.84;5083969;28;20055;-62
2023/10/19 10:52:53;;;;;;;16.23;4.55;;;;;;;14.72;100.00;99069.72;5082523;28;20048;-65
2023/10/19 10:55:41;;;;;;;11.45;3.85;;;;;;;14.77;100.00;99072.25;5074076;28;20044;-64
2023/10/19 10:58:33;;;;;;;14.90;4.53;;;;;;;14.80;100.00;99071.59;5074322;28;20049;-65
2023/10/19 11:01:39;;;;;;;21.08;4.95;;;;;;;14.81;100.00;99068.50;5072480;28;20117;-66
2023/10/19 11:04:27;;;;;;;16.15;4.57;;;;;;;14.82;100.00;99064.63;5073020;28;20748;-64
2023/10/19 11:07:19;;;;;;;15.43;3.95;;;;;;;14.83;100.00;99066.22;5073651;28;20040;-64
2023/10/19 11:10:09;;;;;;;14.30;4.57;;;;;;;14.89;100.00;99064.06;5071218;28;20052;-65
2023/10/19 11:13:08;;;;;;;15.00;3.92;;;;;;;14.94;100.00;99071.28;5073536;28;20049;-64
2023/10/19 11:15:56;;;;;;;14.60;4.25;;;;;;;14.96;100.00;99061.56;5072717;28;20143;-65
2023/10/19 11:18:50;;;;;;;18.92;4.63;;;;;;;14.99;100.00;99062.84;5073030;28;20179;-64
2023/10/19 11:21:38;;;;;;;13.98;4.00;;;;;;;15.04;100.00;99054.38;5073697;28;20044;-65
2023/10/19 11:24:26;;;;;;;13.63;4.25;;;;;;;15.06;100.00;99052.09;5058949;28;20048;-66
2023/10/19 11:27:26;;;;;;;16.92;4.82;;;;;;;15.07;100.00;99051.75;5072483;28;20488;-65
2023/10/19 11:30:22;;;;;;;16.27;4.32;;;;;;;15.07;100.00;99043.50;5073041;28;20123;-66
2023/10/19 11:33:11;;;;;;;12.45;3.92;;;;;;;15.06;100.00;99035.63;5072499;28;20117;-65
2023/10/19 11:36:02;;;;;;;14.00;3.70;;;;;;;15.07;100.00;99037.22;5073086;28;20048;-66
2023/10/19 11:38:52;;;;;;;16.88;3.63;;;;;;;15.07;100.00;99026.25;5072512;28;20085;-64
2023/10/19 11:41:40;;;;;;;13.38;3.45;;;;;;;15.06;100.00;99030.94;5071797;28;20061;-64
2023/10/19 11:44:29;;;;;;;13.57;3.67;;;;;;;15.05;100.00;99023.84;5073064;28;20101;-66
2023/10/19 11:47:17;;;;;;;18.10;4.30;;;;;;;15.05;100.00;99023.84;5071330;28;20052;-64
2023/10/19 11:50:06;;;;;;;16.33;3.72;;;;;;;15.07;100.00;99021.56;5070423;28;20044;-65
2023/10/19 11:52:56;;;;;;;17.10;3.80;;;;;;;15.10;100.00;99025.56;5072630;28;20055;-65
2023/10/19 11:55:44;;;;;;;16.20;4.25;;;;;;;15.12;100.00;99023.28;5072857;28;20048;-65
2023/10/19 11:58:37;;;;;;;15.05;4.03;;;;;;;15.11;100.00;99007.97;5072657;28;20135;-66
2023/10/19 12:01:26;;;;;;;19.38;4.72;;;;;;;15.10;100.00;99009.94;5072545;28;20055;-64
2023/10/19 12:04:14;;;;;;;14.30;3.83;;;;;;;15.10;100.00;99003.63;5038000;28;20140;-65
2023/10/19 12:07:03;;;;;;;14.65;4.03;;;;;;;15.11;100.00;99002.50;5038067;28;20128;-64
2023/10/19 12:09:52;;;;;;;17.40;3.45;;;;;;;15.09;100.00;99010.25;5051034;28;20624;-65
2023/10/19 12:12:41;;;;;;;15.57;3.97;;;;;;;15.09;100.00;99007.53;5047737;28;20424;-64
2023/10/19 12:15:51;;;;;;;18.17;3.97;;;;;;;15.07;100.00;99009.81;5073404;28;20078;-65
2023/10/19 12:18:39;;;;;;;15.43;4.57;;;;;;;15.07;100.00;99004.31;5072868;28;20048;-66
2023/10/19 12:21:28;;;;;;;16.30;4.10;;;;;;;15.08;100.00;98997.69;5057750;28;20234;-64
2023/10/19 12:24:16;;;;;;;18.52;5.03;;;;;;;15.08;100.00;99003.16;5074746;28;20048;-66
2023/10/19 12:27:04;;;;;;;16.70;3.60;;;;;;;15.09;100.00;99007.53;5075940;28;20518;-65
2023/10/19 12:29:54;;;;;;;16.23;3.90;;;;;;;15.09;100.00;99007.53;5062587;28;20049;-66
2023/10/19 12:32:42;;;;;;;21.23;4.30;;;;;;;15.07;100.00;98998.81;5062361;28;20155;-65
2023/10/19 12:35:44;;;;;;;19.90;4.40;;;;;;;15.05;100.00;98996.41;5060257;28;20137;-65
2023/10/19 12:38:33;;;;;;;15.52;3.95;;;;;;;15.04;100.00;98991.28;5061720;28;20098;-65
2023/10/19 12:41:21;;;;;;;17.42;4.55;;;;;;;15.03;100.00;98992.41;5046822;28;20071;-65
2023/10/19 12:44:12;;;;;;;14.57;4.10;;;;;;;15.03;100.00;98993.25;5041321;28;20688;-66
2023/10/19 12:47:00;;;;;;;14.35;4.00;;;;;;;15.03;100.00;98995.16;5041179;28;20386;-64
2023/10/19 12:49:49;;;;;;;15.05;4.70;;;;;;;15.04;100.00;98999.53;5056308;28;20060;-64
2023/10/19 12:52:38;;;;;;;15.27;3.83;;;;;;;15.03;100.00;98992.41;5041213;28;20087;-66
2023/10/19 12:55:28;;;;;;;14.95;4.25;;;;;;;15.02;100.00;98980.66;5040454;28;20045;-64
2023/10/19 12:58:19;;;;;;;19.80;4.50;;;;;;;15.02;100.00;98985.34;5054554;28;20045;-63
2023/10/19 13:01:16;;;;;;;20.63;4.60;;;;;;;15.01;100.00;98986.47;5053307;28;20492;-64
2023/10/19 13:04:18;;;;;;;19.60;4.13;;;;;;;15.02;100.00;98977.13;5074461;28;20072;-65
2023/10/19 13:07:07;;;;;;;21.75;4.93;;;;;;;15.02;100.00;98968.88;5063212;28;20051;-64
2023/10/19 13:09:57;;;;;;;17.63;4.80;;;;;;;15.01;100.00;98962.63;5059505;28;20080;-66
2023/10/19 13:12:46;;;;;;;14.60;4.15;;;;;;;15.01;100.00;98964.53;5032614;28;20134;-65
2023/10/19 13:15:36;;;;;;;14.38;4.05;;;;;;;15.01;100.00;98961.78;5075036;28;20048;-64
2023/10/19 13:18:32;;;;;;;19.23;4.70;;;;;;;15.05;100.00;98959.97;5075349;28;20041;-64